createdAt,value
2023-02-08T00:00:30.976Z,25.00
2023-02-08T00:05:57.114Z,27.20
2023-02-08T00:11:04.586Z,27.70
2023-02-08T00:16:12.636Z,28.60
2023-02-08T00:21:20.422Z,29.30
2023-02-08T00:26:26.111Z,29.70
2023-02-08T00:31:32.069Z,27.90
2023-02-08T00:36:38.211Z,24.80
2023-02-08T00:41:44.039Z,26.30
2023-02-08T00:46:49.907Z,27.10
2023-02-08T00:51:57.344Z,28.30
2023-02-08T00:57:03.603Z,27.00
2023-02-08T01:02:12.250Z,27.30
2023-02-08T01:07:18.377Z,25.60
2023-02-08T01:12:24.975Z,23.30
2023-02-08T01:17:30.824Z,24.00
2023-02-08T01:22:36.915Z,25.80
2023-02-08T01:27:43.145Z,25.30
2023-02-08T01:32:49.200Z,25.10
2023-02-08T01:37:55.578Z,26.60
2023-02-08T01:43:01.764Z,24.20
2023-02-08T01:48:13.295Z,21.80
2023-02-08T01:58:28.117Z,23.80
2023-02-08T02:03:34.562Z,26.40
2023-02-08T02:08:45.009Z,26.00
2023-02-08T02:13:52.757Z,25.00
2023-02-08T02:18:58.748Z,24.10
2023-02-08T02:24:30.093Z,22.60
2023-02-08T02:30:12.751Z,24.20
2023-02-08T02:35:26.304Z,24.20
2023-02-08T02:40:44.536Z,26.00
2023-02-08T02:46:03.384Z,25.40
2023-02-08T02:51:14.583Z,23.30
2023-02-08T03:01:30.163Z,24.30
2023-02-08T03:06:44.771Z,25.30
2023-02-08T03:11:57.978Z,29.90
2023-02-08T03:17:18.663Z,34.80
2023-02-08T03:22:30.935Z,30.30
2023-02-08T03:27:40.116Z,26.50
2023-02-08T03:32:52.572Z,23.30
2023-02-08T03:38:05.019Z,25.20
2023-02-08T03:43:16.422Z,28.20
2023-02-08T03:48:25.455Z,33.00
2023-02-08T03:53:38.413Z,29.50
2023-02-08T03:58:52.116Z,27.40
2023-02-08T04:04:00.672Z,24.20
2023-02-08T04:09:07.292Z,27.60
2023-02-08T04:14:13.436Z,29.40
2023-02-08T04:19:19.212Z,31.70
2023-02-08T04:24:25.180Z,31.00
2023-02-08T04:29:31.413Z,28.00
2023-02-08T04:34:37.380Z,25.80
2023-02-08T04:39:43.506Z,28.80
2023-02-08T04:44:49.585Z,29.80
2023-02-08T04:49:55.665Z,31.60
2023-02-08T04:55:01.626Z,32.10
2023-02-08T05:00:10.001Z,30.60
2023-02-08T05:05:16.269Z,31.30
2023-02-08T05:10:22.890Z,35.00
2023-02-08T05:15:28.755Z,35.50
2023-02-08T05:20:35.516Z,36.80
2023-02-08T05:25:42.065Z,35.70
2023-02-08T05:30:49.315Z,31.40
2023-02-08T05:35:55.892Z,36.10
2023-02-08T05:41:02.052Z,35.70
2023-02-08T05:46:09.676Z,39.40
2023-02-08T05:51:15.826Z,38.40
2023-02-08T05:56:21.707Z,45.90
2023-02-08T06:01:27.774Z,40.20
2023-02-08T06:06:33.729Z,35.30
2023-02-08T06:11:39.625Z,34.90
2023-02-08T06:16:46.272Z,33.30
2023-02-08T06:21:52.241Z,33.30
2023-02-08T06:26:59.388Z,37.70
2023-02-08T06:32:05.820Z,40.30
2023-02-08T06:37:13.371Z,42.70
2023-02-08T06:42:26.575Z,36.20
2023-02-08T06:47:34.600Z,28.80
2023-02-08T06:52:53.862Z,27.10
2023-02-08T06:57:59.913Z,28.90
2023-02-08T07:03:13.356Z,29.70
2023-02-08T07:08:20.101Z,29.30
2023-02-08T07:16:47.434Z,30.10
2023-02-08T07:21:53.560Z,22.70
2023-02-08T07:26:59.452Z,26.80
2023-02-08T07:32:08.076Z,27.50
2023-02-08T07:37:14.589Z,26.90
2023-02-08T07:42:21.923Z,25.20
2023-02-08T07:47:32.974Z,22.90
2023-02-08T07:52:39.517Z,24.00
2023-02-08T07:57:47.510Z,19.50
2023-02-08T08:02:54.064Z,21.40
2023-02-08T08:08:00.411Z,19.00
2023-02-08T08:13:06.652Z,52.20
2023-02-08T08:18:12.538Z,25.20
2023-02-08T08:23:19.718Z,19.50
2023-02-08T08:28:26.570Z,19.20
2023-02-08T08:33:32.592Z,20.90
2023-02-08T08:38:41.895Z,19.30
2023-02-08T08:43:48.035Z,19.20
2023-02-08T08:48:54.265Z,20.60
2023-02-08T08:54:00.034Z,22.60
2023-02-08T08:59:06.012Z,24.00
2023-02-08T09:04:12.160Z,22.20
2023-02-08T09:09:18.776Z,23.90
2023-02-08T09:14:24.676Z,21.00
2023-02-08T09:19:31.407Z,90.80
2023-02-08T09:24:37.446Z,28.90
2023-02-08T09:29:43.615Z,21.90
2023-02-08T09:34:49.590Z,22.40
2023-02-08T09:39:57.333Z,20.90
2023-02-08T09:45:19.693Z,18.50
2023-02-08T09:50:32.586Z,19.80
2023-02-08T09:55:41.499Z,20.50
2023-02-08T10:00:50.821Z,19.40
2023-02-08T10:05:57.818Z,21.60
2023-02-08T10:11:35.424Z,18.90
2023-02-08T10:17:01.074Z,18.60
2023-02-08T10:22:23.461Z,17.70
2023-02-08T10:27:40.277Z,16.00
2023-02-08T10:32:55.496Z,15.40
2023-02-08T10:38:06.793Z,14.80
2023-02-08T10:43:33.701Z,21.70
2023-02-08T10:48:57.380Z,9.40
2023-02-08T10:54:05.837Z,15.00
2023-02-08T10:59:24.599Z,15.40
2023-02-08T11:04:32.667Z,15.60
2023-02-08T11:09:41.065Z,14.70
2023-02-08T11:15:00.128Z,19.30
2023-02-08T11:20:27.124Z,12.00
2023-02-08T11:25:38.939Z,11.90
2023-02-08T11:31:12.627Z,10.70
2023-02-08T11:36:23.376Z,9.60
2023-02-08T11:41:51.163Z,9.70
2023-02-08T11:47:10.315Z,7.50
2023-02-08T11:52:25.862Z,10.80
2023-02-08T11:57:32.925Z,8.50
2023-02-08T12:02:41.344Z,6.50
2023-02-08T12:08:00.106Z,6.80
2023-02-08T12:13:27.624Z,5.20
2023-02-08T12:18:56.748Z,17.30
2023-02-08T12:24:09.073Z,6.80
2023-02-08T12:29:47.334Z,6.40
2023-02-08T12:35:24.151Z,7.40
2023-02-08T12:40:49.888Z,7.10
2023-02-08T12:46:17.153Z,9.60
2023-02-08T12:51:31.595Z,10.40
2023-02-08T12:56:46.550Z,8.00
2023-02-08T13:02:01.876Z,8.80
2023-02-08T13:07:14.660Z,9.00
2023-02-08T13:12:27.286Z,7.90
2023-02-08T13:17:45.082Z,7.10
2023-02-08T13:22:53.170Z,7.10
2023-02-08T13:28:03.417Z,7.40
2023-02-08T13:33:16.855Z,9.00
2023-02-08T13:38:28.671Z,7.10
2023-02-08T13:43:40.756Z,7.10
2023-02-08T13:48:49.600Z,7.60
2023-02-08T13:54:13.112Z,7.20
2023-02-08T13:59:35.245Z,7.30
2023-02-08T14:04:42.862Z,7.20
2023-02-08T14:10:08.584Z,6.80
2023-02-08T14:15:35.324Z,7.40
2023-02-08T14:20:54.899Z,6.70
2023-02-08T14:26:08.423Z,7.10
2023-02-08T14:31:17.724Z,8.50
2023-02-08T14:36:31.411Z,8.20
2023-02-08T14:41:54.861Z,8.10
2023-02-08T14:47:00.999Z,7.90
2023-02-08T14:52:14.809Z,17.70
2023-02-08T14:57:26.009Z,9.70
2023-02-08T15:02:34.338Z,9.30
2023-02-08T15:07:47.360Z,9.70
2023-02-08T15:12:57.923Z,15.70
2023-02-08T15:18:06.179Z,16.70
2023-02-08T15:23:22.202Z,16.50
2023-02-08T15:28:30.089Z,21.70
2023-02-08T15:33:38.426Z,23.80
2023-02-08T15:38:45.071Z,27.90
2023-02-08T15:43:51.040Z,35.00
2023-02-08T15:48:59.221Z,19.00
2023-02-08T15:54:08.693Z,23.50
2023-02-08T15:59:25.037Z,21.90
2023-02-08T16:04:30.989Z,27.70
2023-02-08T16:09:37.451Z,38.10
2023-02-08T16:14:52.801Z,42.00
2023-02-08T16:19:59.564Z,42.60
2023-02-08T16:25:36.098Z,50.80
2023-02-08T16:30:45.126Z,52.30
2023-02-08T16:35:52.256Z,79.30
2023-02-08T16:41:12.388Z,80.70
2023-02-08T16:46:28.506Z,66.10
2023-02-08T16:51:35.735Z,65.70
2023-02-08T16:56:42.566Z,95.60
2023-02-08T17:01:50.071Z,92.70
2023-02-08T17:06:57.564Z,126.90
2023-02-08T17:12:21.489Z,112.80
2023-02-08T17:17:30.040Z,131.90
2023-02-08T17:22:36.308Z,122.90
2023-02-08T17:27:43.508Z,133.80
2023-02-08T17:32:50.444Z,154.00
2023-02-08T17:37:57.750Z,189.60
2023-02-08T17:43:07.108Z,201.30
2023-02-08T17:48:13.909Z,175.00
2023-02-08T17:53:20.745Z,163.70
2023-02-08T17:58:27.541Z,132.90
2023-02-08T18:03:34.251Z,159.20
2023-02-08T18:08:41.004Z,148.70
2023-02-08T18:13:49.195Z,137.80
2023-02-08T18:19:02.208Z,208.00
2023-02-08T18:24:10.231Z,170.40
2023-02-08T18:29:16.354Z,163.30
2023-02-08T18:34:22.364Z,159.90
2023-02-08T18:39:30.000Z,167.20
2023-02-08T18:44:38.651Z,168.80
2023-02-08T18:49:45.261Z,162.70
2023-02-08T18:54:52.169Z,148.70
2023-02-08T18:59:58.417Z,143.80
2023-02-08T19:05:05.206Z,107.80
2023-02-08T19:10:11.478Z,80.90
2023-02-08T19:15:17.606Z,103.20
2023-02-08T19:20:24.284Z,89.50
2023-02-08T19:25:30.589Z,100.20
2023-02-08T19:30:37.482Z,98.20
2023-02-08T19:35:43.792Z,106.00
2023-02-08T19:40:55.512Z,105.10
2023-02-08T19:46:02.519Z,97.70
2023-02-08T19:51:09.814Z,97.20
2023-02-08T19:56:19.039Z,103.80
2023-02-08T20:01:26.323Z,101.70
2023-02-08T20:06:36.210Z,92.70
2023-02-08T20:11:56.349Z,87.00
2023-02-08T20:17:04.580Z,98.20
2023-02-08T20:22:10.838Z,96.90
2023-02-08T20:27:18.356Z,99.30
2023-02-08T20:32:24.410Z,110.80
2023-02-08T20:37:30.766Z,119.80
2023-02-08T20:42:38.106Z,148.20
2023-02-08T20:47:46.958Z,165.30
2023-02-08T20:52:53.898Z,153.30
2023-02-08T20:58:01.490Z,125.00
2023-02-08T21:03:08.009Z,112.70
2023-02-08T21:08:14.428Z,93.20
2023-02-08T21:13:22.823Z,83.10
2023-02-08T21:18:29.677Z,88.50
2023-02-08T21:23:36.649Z,85.20
2023-02-08T21:28:43.825Z,93.30
2023-02-08T21:33:50.982Z,105.70
2023-02-08T21:38:59.490Z,98.20
2023-02-08T21:44:08.171Z,104.60
2023-02-08T21:49:33.369Z,109.10
2023-02-08T21:54:42.676Z,119.80
2023-02-08T21:59:51.476Z,113.00
2023-02-08T22:04:59.657Z,121.20
2023-02-08T22:10:10.192Z,120.30
2023-02-08T22:15:19.203Z,109.10
2023-02-08T22:20:26.745Z,102.40
2023-02-08T22:27:46.861Z,104.90
2023-02-08T22:32:52.666Z,107.90
2023-02-08T22:37:58.334Z,110.70
2023-02-08T22:43:03.850Z,108.80
2023-02-08T22:48:10.105Z,103.90
2023-02-08T22:53:15.699Z,87.70
2023-02-08T22:58:21.927Z,65.50
2023-02-08T23:03:27.673Z,68.30
2023-02-08T23:08:33.763Z,66.80
2023-02-08T23:13:39.518Z,71.80
2023-02-08T23:18:45.282Z,67.20
2023-02-08T23:23:50.937Z,67.70
2023-02-08T23:28:56.709Z,67.40
2023-02-08T23:38:51.251Z,63.90
2023-02-08T23:43:57.795Z,68.70
2023-02-08T23:49:04.156Z,67.10
2023-02-08T23:54:11.415Z,60.40
2023-02-08T23:59:17.932Z,55.20
